Black River (Missouri), Williamsville (07062575)

StateMissouriLatestLow (1750 cfs)
RiverBlack RiverRatingObservedEstimated
Updated2020-08-07 13:30 (30 minutes ago)Flood - The river is flooding. Obstacles can be treacherous or deadly. The river should be avoided at this stage for casual trips and definitely for the inexperienced. Trips should be attempted only with protective gear and equipment.Flood(none)4990
Discharge1750 cfs (median: 471 cfs)High - The river is high and potentially dangerous, especially for the young and / or inexperienced. Normal stream obstacles are sometimes difficult to navigate. Extended distances can be attempted, but canoe travel may not be advisable.High(none)2640
Height5.4 feetGood - Conditions are ideal for a canoe or kayak. Boats typically will drag on fewer than one-quarter of riffles, if at all, and portages are unnecessary or rare. Normal float lengths can be attempted without a problem.Good(none)1928
TrendFalling (falling over 24 hours)Low - River is low but can still be floated. Some riffles are okay but most come with significant dragging and might need a portage. Float lengths should be reduced to accommodate low flow, dragging, and portages.Low(none)641
USGSExternal icon USGS Site (External icon Google Maps)Poor - River is too low to float comfortably. Most or all riffles will drag or must be portaged and some obstacles (such as slick shelf rock) cause undue problems. Avoid the river at this stage for casual paddling trips.Poor(none)289

Trending Data

Plot Image

Trips for Black River (Missouri), Williamsville (07062575)

DateStartEndDistanceConditionDischargeHeightFishingDetails

A total of 0 rows are displayed.

Condition Descriptions

Fishing Conditions

Fish Species

Notes

Classic Trip List

The classic River Trips application is still available for use. It is updated with the new system using a data retrofit. It is no longer maintained. The original River Trips application is no longer updated (as of 1 Dec 2016) but can be checked for errors or for the condition of the data before it was converted to the new system.

Gauge Data Table

ObservationHeightDischargeMaximum
Discharge
Minimum
Discharge
Mean
Discharge
P05P10P20P25P50
(Median)
P75P80P90P95
2020-08-07 13:30 5.40 1750 2740 (2013) 259 (2012) 672 293 372 376 471 673 713 2140
2020-08-07 12:30 5.41 1760 2740 (2013) 259 (2012) 672 293 372 376 471 673 713 2140
2020-08-07 11:30 5.41 1760 2740 (2013) 259 (2012) 672 293 372 376 471 673 713 2140
2020-08-07 10:30 5.41 1760 2740 (2013) 259 (2012) 672 293 372 376 471 673 713 2140
2020-08-07 09:30 5.41 1760 2740 (2013) 259 (2012) 672 293 372 376 471 673 713 2140
2020-08-07 08:30 5.41 1760 2740 (2013) 259 (2012) 672 293 372 376 471 673 713 2140
2020-08-07 07:30 5.41 1760 2740 (2013) 259 (2012) 672 293 372 376 471 673 713 2140
2020-08-07 06:30 5.40 1750 2740 (2013) 259 (2012) 672 293 372 376 471 673 713 2140
2020-08-07 05:30 5.41 1760 2740 (2013) 259 (2012) 672 293 372 376 471 673 713 2140
2020-08-07 04:30 5.41 1760 2740 (2013) 259 (2012) 672 293 372 376 471 673 713 2140
2020-08-07 03:30 5.41 1760 2740 (2013) 259 (2012) 672 293 372 376 471 673 713 2140
2020-08-07 02:30 5.41 1760 2740 (2013) 259 (2012) 672 293 372 376 471 673 713 2140
2020-08-07 01:30 5.41 1760 2740 (2013) 259 (2012) 672 293 372 376 471 673 713 2140
2020-08-07 00:30 5.41 1760 2740 (2013) 259 (2012) 672 293 372 376 471 673 713 2140
2020-08-06 23:30 5.40 1750 1630 (2013) 255 (2012) 587 289 369 376 480 660 729 1390
2020-08-06 22:30 5.41 1760 1630 (2013) 255 (2012) 587 289 369 376 480 660 729 1390
2020-08-06 21:30 5.40 1750 1630 (2013) 255 (2012) 587 289 369 376 480 660 729 1390
2020-08-06 20:30 5.40 1750 1630 (2013) 255 (2012) 587 289 369 376 480 660 729 1390
2020-08-06 19:30 5.40 1750 1630 (2013) 255 (2012) 587 289 369 376 480 660 729 1390
2020-08-06 18:30 5.40 1750 1630 (2013) 255 (2012) 587 289 369 376 480 660 729 1390
2020-08-06 17:30 5.40 1750 1630 (2013) 255 (2012) 587 289 369 376 480 660 729 1390
2020-08-06 16:30 5.40 1750 1630 (2013) 255 (2012) 587 289 369 376 480 660 729 1390
2020-08-06 15:30 5.39 1740 1630 (2013) 255 (2012) 587 289 369 376 480 660 729 1390
2020-08-06 14:30 5.39 1760 1630 (2013) 255 (2012) 587 289 369 376 480 660 729 1390
2020-08-06 13:30 5.39 1760 1630 (2013) 255 (2012) 587 289 369 376 480 660 729 1390
2020-08-06 12:30 5.39 1760 1630 (2013) 255 (2012) 587 289 369 376 480 660 729 1390
2020-08-06 11:30 5.38 1750 1630 (2013) 255 (2012) 587 289 369 376 480 660 729 1390
2020-08-06 10:30 5.38 1750 1630 (2013) 255 (2012) 587 289 369 376 480 660 729 1390
2020-08-06 09:30 5.37 1750 1630 (2013) 255 (2012) 587 289 369 376 480 660 729 1390
2020-08-06 08:30 5.36 1740 1630 (2013) 255 (2012) 587 289 369 376 480 660 729 1390
2020-08-06 07:30 5.35 1730 1630 (2013) 255 (2012) 587 289 369 376 480 660 729 1390
2020-08-06 06:30 5.33 1720 1630 (2013) 255 (2012) 587 289 369 376 480 660 729 1390
2020-08-06 05:30 5.32 1710 1630 (2013) 255 (2012) 587 289 369 376 480 660 729 1390
2020-08-06 04:30 5.29 1690 1630 (2013) 255 (2012) 587 289 369 376 480 660 729 1390
2020-08-06 03:30 5.26 1660 1630 (2013) 255 (2012) 587 289 369 376 480 660 729 1390
2020-08-06 02:30 5.23 1640 1630 (2013) 255 (2012) 587 289 369 376 480 660 729 1390
2020-08-06 01:30 5.20 1620 1630 (2013) 255 (2012) 587 289 369 376 480 660 729 1390
2020-08-06 00:30 5.16 1590 1630 (2013) 255 (2012) 587 289 369 376 480 660 729 1390

A total of 38 rows are displayed for years 2008 through 2019.